Time,TemperatureF,DewpointF,PressureIn,WindDirection,WindDirectionDegrees,WindSpeedMPH,WindSpeedGustMPH,Humidity,HourlyPrecipIn,Conditions,Clouds,dailyrainin,SoftwareType,DateUTC
2013-03-14 00:03:00,29.3,25.1,30.02,WNW,299,7.0,8.0,84,0.00,,---,0.00,VWS V14.01,2013-03-14 00:03:00,
2013-03-14 00:08:00,29.3,25.1,30.02,WNW,300,6.0,8.0,84,0.00,,---,0.00,VWS V14.01,2013-03-14 00:08:00,
2013-03-14 00:13:00,29.2,25.0,30.02,WNW,294,6.0,6.0,84,0.00,,---,0.00,VWS V14.01,2013-03-14 00:13:00,
2013-03-14 00:18:00,29.4,25.5,30.02,WNW,287,5.0,6.0,85,0.00,,---,0.00,VWS V14.01,2013-03-14 00:18:00,
2013-03-14 00:23:00,29.8,25.6,30.02,WNW,295,4.0,5.0,84,0.00,,---,0.00,VWS V14.01,2013-03-14 00:23:00,
2013-03-14 00:28:00,29.8,25.6,30.02,WNW,297,5.0,5.0,84,0.00,,---,0.00,VWS V14.01,2013-03-14 00:28:00,
2013-03-14 00:33:00,29.6,25.4,30.02,NW,306,5.0,5.0,84,0.00,,---,0.00,VWS V14.01,2013-03-14 00:33:00,
2013-03-14 00:38:00,29.0,24.8,30.01,NW,309,5.0,6.0,84,0.00,,---,0.00,VWS V14.01,2013-03-14 00:38:00,
2013-03-14 00:43:00,28.8,24.9,30.01,NW,305,6.0,6.0,85,0.00,,---,0.00,VWS V14.01,2013-03-14 00:43:00,
2013-03-14 00:48:00,28.6,24.7,30.01,NW,307,6.0,6.0,85,0.00,,---,0.00,VWS V14.01,2013-03-14 00:48:00,
2013-03-14 00:53:00,28.6,25.0,30.01,NW,309,5.0,6.0,86,0.00,,---,0.00,VWS V14.01,2013-03-14 00:53:00,
2013-03-14 00:58:00,28.8,24.9,30.01,WNW,289,6.0,8.0,85,0.00,,---,0.00,VWS V14.01,2013-03-14 00:58:00,
2013-03-14 01:03:00,29.6,25.6,30.01,WNW,282,6.0,6.0,85,0.00,,---,0.00,VWS V14.01,2013-03-14 01:03:00,
2013-03-14 01:08:00,29.6,25.4,30.02,WNW,294,5.0,6.0,84,0.00,,---,0.00,VWS V14.01,2013-03-14 01:08:00,
2013-03-14 01:13:00,30.1,26.1,30.01,West,280,8.0,8.0,85,0.00,,---,0.00,VWS V14.01,2013-03-14 01:13:00,
2013-03-14 01:18:00,30.1,25.3,30.01,WNW,289,7.0,7.0,82,0.00,,---,0.00,VWS V14.01,2013-03-14 01:18:00,
2013-03-14 01:23:00,29.9,25.4,30.01,West,280,4.0,4.0,83,0.00,,---,0.00,VWS V14.01,2013-03-14 01:23:00,
2013-03-14 01:28:00,29.8,25.6,30.01,WNW,284,5.0,7.0,84,0.00,,---,0.00,VWS V14.01,2013-03-14 01:28:00,
2013-03-14 01:33:00,30.2,25.7,30.01,West,276,8.0,8.0,83,0.00,,---,0.00,VWS V14.01,2013-03-14 01:33:00,
2013-03-14 01:38:00,30.9,25.8,30.01,WNW,286,9.0,9.0,81,0.00,,---,0.00,VWS V14.01,2013-03-14 01:38:00,
2013-03-14 01:43:00,31.0,25.3,30.01,WNW,295,7.0,8.0,79,0.00,,---,0.00,VWS V14.01,2013-03-14 01:43:00,
2013-03-14 01:48:00,30.9,25.5,30.01,West,280,9.0,10.0,80,0.00,,---,0.00,VWS V14.01,2013-03-14 01:48:00,
2013-03-14 01:53:00,30.8,25.4,30.01,West,274,11.0,11.0,80,0.00,,---,0.00,VWS V14.01,2013-03-14 01:53:00,
2013-03-14 01:58:00,30.6,25.5,30.01,WNW,292,8.0,9.0,81,0.00,,---,0.00,VWS V14.01,2013-03-14 01:58:00,
2013-03-14 02:03:00,30.5,25.4,30.01,WNW,284,8.0,10.0,81,0.00,,---,0.00,VWS V14.01,2013-03-14 02:03:00,
2013-03-14 02:08:00,29.7,24.9,30.00,WNW,300,8.0,8.0,82,0.00,,---,0.00,VWS V14.01,2013-03-14 02:08:00,
2013-03-14 02:13:00,29.4,24.9,30.00,WNW,302,7.0,9.0,83,0.00,,---,0.00,VWS V14.01,2013-03-14 02:13:00,
2013-03-14 02:18:00,29.8,25.3,30.00,NW,313,5.0,8.0,83,0.00,,---,0.00,VWS V14.01,2013-03-14 02:18:00,
2013-03-14 02:23:00,29.5,25.0,30.00,WNW,300,8.0,8.0,83,0.00,,---,0.00,VWS V14.01,2013-03-14 02:23:00,
2013-03-14 02:28:00,29.3,25.1,30.00,WNW,303,7.0,7.0,84,0.00,,---,0.00,VWS V14.01,2013-03-14 02:28:00,
2013-03-14 02:33:00,29.4,25.2,30.00,NW,307,6.0,7.0,84,0.00,,---,0.00,VWS V14.01,2013-03-14 02:33:00,
2013-03-14 02:38:00,29.9,25.7,30.00,WNW,286,6.0,8.0,84,0.00,,---,0.00,VWS V14.01,2013-03-14 02:38:00,
2013-03-14 02:43:00,30.7,25.9,30.00,West,276,7.0,8.0,82,0.00,,---,0.00,VWS V14.01,2013-03-14 02:43:00,
2013-03-14 02:48:00,31.1,26.0,29.99,West,269,8.0,9.0,81,0.00,,---,0.00,VWS V14.01,2013-03-14 02:48:00,
2013-03-14 02:53:00,31.4,25.6,30.00,West,269,11.0,11.0,79,0.00,,---,0.00,VWS V14.01,2013-03-14 02:53:00,
2013-03-14 02:58:00,31.3,25.6,30.00,West,273,9.0,11.0,79,0.00,,---,0.00,VWS V14.01,2013-03-14 02:58:00,
2013-03-14 03:03:00,31.1,25.7,30.00,WNW,285,10.0,12.0,80,0.00,,---,0.00,VWS V14.01,2013-03-14 03:03:00,
2013-03-14 03:08:00,30.9,25.5,30.00,WNW,287,11.0,11.0,80,0.00,,---,0.00,VWS V14.01,2013-03-14 03:08:00,
2013-03-14 03:13:00,30.8,25.4,29.99,WNW,289,9.0,11.0,80,0.00,,---,0.00,VWS V14.01,2013-03-14 03:13:00,
2013-03-14 03:18:00,30.5,25.4,29.99,WNW,286,11.0,11.0,81,0.00,,---,0.00,VWS V14.01,2013-03-14 03:18:00,
2013-03-14 03:23:00,30.1,25.3,29.99,WNW,295,10.0,11.0,82,0.00,,---,0.00,VWS V14.01,2013-03-14 03:23:00,
2013-03-14 03:28:00,29.7,25.2,29.99,WNW,297,9.0,10.0,83,0.00,,---,0.00,VWS V14.01,2013-03-14 03:28:00,
2013-03-14 03:33:00,29.6,25.4,29.98,West,280,8.0,10.0,84,0.00,,---,0.00,VWS V14.01,2013-03-14 03:33:00,
2013-03-14 03:38:00,30.0,25.8,29.98,WNW,292,5.0,7.0,84,0.00,,---,0.00,VWS V14.01,2013-03-14 03:38:00,
2013-03-14 03:43:00,30.5,26.0,29.98,WNW,283,5.0,7.0,83,0.00,,---,0.00,VWS V14.01,2013-03-14 03:43:00,
2013-03-14 03:48:00,31.0,26.2,29.98,WSW,239,1.0,1.0,82,0.00,,---,0.00,VWS V14.01,2013-03-14 03:48:00,
2013-03-14 03:53:00,30.2,25.4,29.98,SSW,202,1.0,1.0,82,0.00,,---,0.00,VWS V14.01,2013-03-14 03:53:00,
2013-03-14 03:58:00,29.5,25.3,29.98,SSW,202,0.0,1.0,84,0.00,,---,0.00,VWS V14.01,2013-03-14 03:58:00,
2013-03-14 04:00:00,29.4,25.2,29.98,SSW,202,0.0,0.0,84,0.00,,---,0.00,VWS V14.01,2013-03-14 04:00:00,
2013-03-14 04:05:00,29.2,25.3,29.98,SSW,202,1.0,1.0,85,0.00,,---,0.00,VWS V14.01,2013-03-14 04:05:00,
2013-03-14 04:10:00,29.2,25.3,29.98,NW,318,2.0,2.0,85,0.00,,---,0.00,VWS V14.01,2013-03-14 04:10:00,
2013-03-14 04:15:00,29.5,25.6,29.98,West,264,0.0,2.0,85,0.00,,---,0.00,VWS V14.01,2013-03-14 04:15:00,
2013-03-14 04:20:00,30.1,26.1,29.97,West,274,1.0,1.0,85,0.00,,---,0.00,VWS V14.01,2013-03-14 04:20:00,
2013-03-14 04:25:00,30.6,26.1,29.97,West,274,7.0,9.0,83,0.00,,---,0.00,VWS V14.01,2013-03-14 04:25:00,
2013-03-14 04:30:00,30.9,25.8,29.97,West,272,10.0,10.0,81,0.00,,---,0.00,VWS V14.01,2013-03-14 04:30:00,
2013-03-14 04:35:00,31.1,25.7,29.97,West,279,11.0,11.0,80,0.00,,---,0.00,VWS V14.01,2013-03-14 04:35:00,
2013-03-14 04:40:00,31.2,25.8,29.97,West,267,12.0,14.0,80,0.00,,---,0.00,VWS V14.01,2013-03-14 04:40:00,
2013-03-14 04:45:00,31.3,25.6,29.97,West,273,13.0,13.0,79,0.00,,---,0.00,VWS V14.01,2013-03-14 04:45:00,
2013-03-14 04:50:00,31.4,25.6,29.97,West,272,12.0,12.0,79,0.00,,---,0.00,VWS V14.01,2013-03-14 04:50:00,
2013-03-14 04:55:00,31.5,25.8,29.97,West,271,13.0,13.0,79,0.00,,---,0.00,VWS V14.01,2013-03-14 04:55:00,
2013-03-14 05:00:00,31.5,25.4,29.97,West,280,11.0,12.0,78,0.00,,---,0.00,VWS V14.01,2013-03-14 05:00:00,
2013-03-14 05:05:00,31.6,25.5,29.97,WNW,292,9.0,11.0,78,0.00,,---,0.00,VWS V14.01,2013-03-14 05:05:00,
2013-03-14 05:10:00,31.7,25.6,29.97,WNW,292,9.0,12.0,78,0.00,,---,0.00,VWS V14.01,2013-03-14 05:10:00,
2013-03-14 05:15:00,31.8,25.4,29.97,WNW,290,12.0,12.0,77,0.00,,---,0.00,VWS V14.01,2013-03-14 05:15:00,
2013-03-14 05:20:00,31.6,25.5,29.96,WNW,282,13.0,13.0,78,0.00,,---,0.00,VWS V14.01,2013-03-14 05:20:00,
2013-03-14 05:25:00,31.5,25.8,29.97,West,273,14.0,14.0,79,0.00,,---,0.00,VWS V14.01,2013-03-14 05:25:00,
2013-03-14 05:30:00,31.5,25.4,29.96,West,269,11.0,11.0,78,0.00,,---,0.00,VWS V14.01,2013-03-14 05:30:00,
2013-03-14 05:35:00,31.4,25.4,29.96,West,275,11.0,11.0,78,0.00,,---,0.00,VWS V14.01,2013-03-14 05:35:00,
2013-03-14 05:40:00,31.4,25.4,29.96,West,270,11.0,11.0,78,0.00,,---,0.00,VWS V14.01,2013-03-14 05:40:00,
2013-03-14 05:45:00,31.4,25.4,29.96,West,270,10.0,11.0,78,0.00,,---,0.00,VWS V14.01,2013-03-14 05:45:00,
2013-03-14 05:50:00,31.3,25.2,29.96,West,269,7.0,8.0,78,0.00,,---,0.00,VWS V14.01,2013-03-14 05:50:00,
2013-03-14 05:55:00,31.3,25.2,29.96,West,266,6.0,6.0,78,0.00,,---,0.00,VWS V14.01,2013-03-14 05:55:00,
2013-03-14 06:00:00,31.4,25.4,29.96,WSW,255,4.0,4.0,78,0.00,,---,0.00,VWS V14.01,2013-03-14 06:00:00,
2013-03-14 06:05:00,31.4,25.4,29.96,East,99,2.0,2.0,78,0.00,,---,0.00,VWS V14.01,2013-03-14 06:05:00,
2013-03-14 06:10:00,30.7,25.3,29.96,West,275,3.0,6.0,80,0.00,,---,0.00,VWS V14.01,2013-03-14 06:10:00,
2013-03-14 06:15:00,31.3,25.6,29.96,WNW,283,9.0,11.0,79,0.00,,---,0.00,VWS V14.01,2013-03-14 06:15:00,
2013-03-14 06:20:00,31.6,25.5,29.95,West,275,14.0,14.0,78,0.00,,---,0.00,VWS V14.01,2013-03-14 06:20:00,
2013-03-14 06:25:00,31.6,25.5,29.95,West,278,11.0,13.0,78,0.00,,---,0.00,VWS V14.01,2013-03-14 06:25:00,
2013-03-14 06:30:00,31.6,25.5,29.95,West,275,14.0,14.0,78,0.00,,---,0.00,VWS V14.01,2013-03-14 06:30:00,
2013-03-14 06:35:00,31.6,25.5,29.95,West,268,13.0,13.0,78,0.00,,---,0.00,VWS V14.01,2013-03-14 06:35:00,
2013-03-14 06:40:00,31.7,25.6,29.95,West,270,15.0,15.0,78,0.00,,---,0.00,VWS V14.01,2013-03-14 06:40:00,
2013-03-14 06:45:00,31.8,25.4,29.95,WNW,282,14.0,14.0,77,0.00,,---,0.00,VWS V14.01,2013-03-14 06:45:00,
2013-03-14 06:50:00,31.6,25.5,29.95,West,269,15.0,15.0,78,0.00,,---,0.00,VWS V14.01,2013-03-14 06:50:00,
2013-03-14 06:55:00,31.6,25.5,29.95,West,274,13.0,13.0,78,0.00,,---,0.00,VWS V14.01,2013-03-14 06:55:00,
2013-03-14 07:00:00,31.9,25.5,29.95,West,277,13.0,13.0,77,0.00,,---,0.00,VWS V14.01,2013-03-14 07:00:00,
2013-03-14 07:05:00,32.0,25.9,29.95,West,278,10.0,13.0,78,0.00,,---,0.00,VWS V14.01,2013-03-14 07:05:00,
2013-03-14 07:10:00,32.1,25.7,29.95,WNW,289,10.0,12.0,77,0.00,,---,0.00,VWS V14.01,2013-03-14 07:10:00,
2013-03-14 07:15:00,31.8,26.0,29.95,WNW,300,7.0,10.0,79,0.00,,---,0.00,VWS V14.01,2013-03-14 07:15:00,
2013-03-14 07:20:00,31.0,26.2,29.95,WNW,296,12.0,12.0,82,0.00,,---,0.00,VWS V14.01,2013-03-14 07:20:00,
2013-03-14 07:25:00,30.8,26.3,29.95,West,272,10.0,11.0,83,0.00,,---,0.00,VWS V14.01,2013-03-14 07:25:00,
2013-03-14 07:30:00,31.3,26.5,29.95,WNW,295,10.0,10.0,82,0.00,,---,0.00,VWS V14.01,2013-03-14 07:30:00,
2013-03-14 07:35:00,31.7,26.2,29.95,West,280,11.0,13.0,80,0.00,,---,0.00,VWS V14.01,2013-03-14 07:35:00,
2013-03-14 07:40:00,32.0,26.5,29.95,WNW,282,10.0,10.0,80,0.00,,---,0.00,VWS V14.01,2013-03-14 07:40:00,
2013-03-14 07:45:00,32.1,26.3,29.95,West,280,8.0,11.0,79,0.00,,---,0.00,VWS V14.01,2013-03-14 07:45:00,
2013-03-14 07:50:00,32.4,26.3,29.95,WNW,292,8.0,10.0,78,0.00,,---,0.00,VWS V14.01,2013-03-14 07:50:00,
2013-03-14 07:55:00,32.7,26.3,29.95,WNW,284,9.0,10.0,77,0.00,,---,0.00,VWS V14.01,2013-03-14 07:55:00,
2013-03-14 08:00:00,32.5,26.4,29.95,WNW,292,9.0,9.0,78,0.00,,---,0.00,VWS V14.01,2013-03-14 08:00:00,
2013-03-14 08:05:00,32.1,26.6,29.95,WNW,295,9.0,10.0,80,0.00,,---,0.00,VWS V14.01,2013-03-14 08:05:00,
2013-03-14 08:10:00,32.1,26.6,29.95,WNW,292,8.0,10.0,80,0.00,,---,0.00,VWS V14.01,2013-03-14 08:10:00,
2013-03-14 08:15:00,32.1,26.6,29.95,WNW,286,8.0,11.0,80,0.00,,---,0.00,VWS V14.01,2013-03-14 08:15:00,
2013-03-14 08:20:00,32.2,26.7,29.95,WNW,294,9.0,10.0,80,0.00,,---,0.00,VWS V14.01,2013-03-14 08:20:00,
2013-03-14 08:25:00,32.4,26.9,29.95,WNW,289,9.0,10.0,80,0.00,,---,0.00,VWS V14.01,2013-03-14 08:25:00,
2013-03-14 08:30:00,32.3,26.8,29.94,WNW,292,8.0,8.0,80,0.00,,---,0.00,VWS V14.01,2013-03-14 08:30:00,
2013-03-14 08:35:00,32.3,27.1,29.94,WNW,294,7.0,8.0,81,0.00,,---,0.00,VWS V14.01,2013-03-14 08:35:00,
2013-03-14 08:40:00,32.4,26.9,29.94,WNW,292,8.0,8.0,80,0.00,,---,0.00,VWS V14.01,2013-03-14 08:40:00,
2013-03-14 08:45:00,32.8,27.0,29.94,West,280,8.0,8.0,79,0.00,,---,0.00,VWS V14.01,2013-03-14 08:45:00,
2013-03-14 08:50:00,33.1,27.3,29.94,WNW,286,6.0,6.0,79,0.00,,---,0.00,VWS V14.01,2013-03-14 08:50:00,
2013-03-14 08:55:00,33.1,27.3,29.94,West,279,4.0,7.0,79,0.00,,---,0.00,VWS V14.01,2013-03-14 08:55:00,
2013-03-14 09:00:00,33.4,27.6,29.94,WNW,283,6.0,8.0,79,0.00,,---,0.00,VWS V14.01,2013-03-14 09:00:00,
2013-03-14 09:05:00,33.5,27.7,29.94,WNW,287,5.0,6.0,79,0.00,,---,0.00,VWS V14.01,2013-03-14 09:05:00,
2013-03-14 09:10:00,33.7,28.2,29.94,West,277,8.0,8.0,80,0.00,,---,0.00,VWS V14.01,2013-03-14 09:10:00,
2013-03-14 09:15:00,34.0,28.5,29.94,WNW,282,7.0,7.0,80,0.00,,---,0.00,VWS V14.01,2013-03-14 09:15:00,
2013-03-14 09:20:00,34.4,28.9,29.94,WSW,246,9.0,9.0,80,0.00,,---,0.00,VWS V14.01,2013-03-14 09:20:00,
2013-03-14 09:25:00,34.7,29.2,29.94,WSW,249,3.0,4.0,80,0.00,,---,0.00,VWS V14.01,2013-03-14 09:25:00,
2013-03-14 09:30:00,34.8,29.3,29.94,West,262,4.0,6.0,80,0.00,,---,0.00,VWS V14.01,2013-03-14 09:30:00,
2013-03-14 09:35:00,34.9,29.4,29.93,West,273,6.0,7.0,80,0.00,,---,0.00,VWS V14.01,2013-03-14 09:35:00,
2013-03-14 09:40:00,34.9,29.4,29.93,SW,235,11.0,11.0,80,0.00,,---,0.00,VWS V14.01,2013-03-14 09:40:00,
2013-03-14 09:45:00,34.9,29.7,29.93,WSW,239,6.0,7.0,81,0.00,,---,0.00,VWS V14.01,2013-03-14 09:45:00,
2013-03-14 09:50:00,35.2,30.0,29.93,SW,235,7.0,9.0,81,0.00,,---,0.00,VWS V14.01,2013-03-14 09:50:00,
2013-03-14 09:55:00,35.5,30.6,29.93,WSW,239,4.0,8.0,82,0.00,,---,0.00,VWS V14.01,2013-03-14 09:55:00,
2013-03-14 10:00:00,35.6,31.0,29.93,West,259,5.0,5.0,83,0.00,,---,0.00,VWS V14.01,2013-03-14 10:00:00,
2013-03-14 10:05:00,35.7,30.8,29.92,WSW,244,4.0,5.0,82,0.00,,---,0.00,VWS V14.01,2013-03-14 10:05:00,
2013-03-14 10:10:00,35.8,31.5,29.93,SW,233,3.0,5.0,84,0.00,,---,0.00,VWS V14.01,2013-03-14 10:10:00,
2013-03-14 10:15:00,36.0,31.6,29.92,SW,227,5.0,6.0,84,0.00,,---,0.00,VWS V14.01,2013-03-14 10:15:00,
2013-03-14 10:20:00,35.9,31.5,29.92,SSW,209,6.0,6.0,84,0.00,,---,0.00,VWS V14.01,2013-03-14 10:20:00,
2013-03-14 10:25:00,35.9,31.5,29.92,South,169,6.0,6.0,84,0.00,,---,0.00,VWS V14.01,2013-03-14 10:25:00,
2013-03-14 10:30:00,35.9,31.5,29.92,SW,218,6.0,7.0,84,0.00,,---,0.00,VWS V14.01,2013-03-14 10:30:00,
2013-03-14 10:35:00,36.0,31.6,29.92,South,174,5.0,8.0,84,0.00,,---,0.00,VWS V14.01,2013-03-14 10:35:00,
2013-03-14 10:40:00,36.1,31.7,29.92,SSW,207,6.0,7.0,84,0.00,,---,0.00,VWS V14.01,2013-03-14 10:40:00,
2013-03-14 10:45:00,36.0,31.6,29.92,South,190,9.0,9.0,84,0.00,,---,0.00,VWS V14.01,2013-03-14 10:45:00,
2013-03-14 10:50:00,35.8,31.5,29.91,SSE,168,6.0,6.0,84,0.00,,---,0.00,VWS V14.01,2013-03-14 10:50:00,
2013-03-14 10:55:00,35.5,30.9,29.91,SSE,166,5.0,5.0,83,0.00,,---,0.00,VWS V14.01,2013-03-14 10:55:00,
2013-03-14 11:00:00,34.9,30.6,29.91,SSE,150,4.0,4.0,84,0.00,,---,0.00,VWS V14.01,2013-03-14 11:00:00,
2013-03-14 11:05:00,35.1,31.0,29.91,SE,145,4.0,4.0,85,0.00,,---,0.00,VWS V14.01,2013-03-14 11:05:00,
2013-03-14 11:10:00,35.3,31.2,29.91,SE,127,3.0,4.0,85,0.00,,---,0.00,VWS V14.01,2013-03-14 11:10:00,
2013-03-14 11:15:00,35.2,31.1,29.91,SSE,161,2.0,2.0,85,0.00,,---,0.00,VWS V14.01,2013-03-14 11:15:00,
2013-03-14 11:20:00,35.1,31.0,29.91,SSW,195,3.0,4.0,85,0.00,,---,0.00,VWS V14.01,2013-03-14 11:20:00,
2013-03-14 11:25:00,35.2,31.1,29.90,SE,140,3.0,3.0,85,0.00,,---,0.00,VWS V14.01,2013-03-14 11:25:00,
2013-03-14 11:30:00,35.3,31.5,29.90,South,188,2.0,2.0,86,0.00,,---,0.00,VWS V14.01,2013-03-14 11:30:00,
2013-03-14 11:35:00,35.5,31.7,29.90,SSE,159,1.0,2.0,86,0.00,,---,0.00,VWS V14.01,2013-03-14 11:35:00,
2013-03-14 11:40:00,35.7,31.9,29.90,SSW,192,4.0,4.0,86,0.00,,---,0.00,VWS V14.01,2013-03-14 11:40:00,
2013-03-14 11:45:00,35.8,32.3,29.90,South,180,5.0,5.0,87,0.00,,---,0.00,VWS V14.01,2013-03-14 11:45:00,
2013-03-14 11:50:00,36.0,32.8,29.89,WSW,249,0.0,0.0,88,0.00,,---,0.00,VWS V14.01,2013-03-14 11:50:00,
2013-03-14 11:55:00,36.1,32.9,29.89,South,187,2.0,2.0,88,0.00,,---,0.00,VWS V14.01,2013-03-14 11:55:00,
2013-03-14 12:00:00,36.3,33.4,29.89,SSW,194,3.0,4.0,89,0.00,,---,0.00,VWS V14.01,2013-03-14 12:00:00,
2013-03-14 12:05:00,36.6,33.7,29.89,SSE,163,2.0,3.0,89,0.00,,---,0.00,VWS V14.01,2013-03-14 12:05:00,
2013-03-14 12:10:00,36.8,33.9,29.88,West,277,0.0,0.0,89,0.00,,---,0.00,VWS V14.01,2013-03-14 12:10:00,
2013-03-14 12:15:00,36.7,33.5,29.88,SSE,154,2.0,2.0,88,0.00,,---,0.00,VWS V14.01,2013-03-14 12:15:00,
2013-03-14 12:20:00,36.4,33.2,29.88,SSE,153,6.0,6.0,88,0.00,,---,0.00,VWS V14.01,2013-03-14 12:20:00,
2013-03-14 12:25:00,36.1,33.2,29.88,SSE,159,1.0,1.0,89,0.00,,---,0.00,VWS V14.01,2013-03-14 12:25:00,
2013-03-14 12:30:00,36.3,33.7,29.87,ESE,117,2.0,2.0,90,0.00,,---,0.00,VWS V14.01,2013-03-14 12:30:00,
2013-03-14 12:35:00,37.0,34.9,29.87,SE,135,2.0,2.0,92,0.00,,---,0.00,VWS V14.01,2013-03-14 12:35:00,
2013-03-14 12:40:00,37.6,34.9,29.87,SE,135,4.0,4.0,90,0.00,,---,0.00,VWS V14.01,2013-03-14 12:40:00,
2013-03-14 12:45:00,37.9,35.2,29.87,SE,142,5.0,5.0,90,0.00,,---,0.00,VWS V14.01,2013-03-14 12:45:00,
2013-03-14 12:50:00,37.5,34.6,29.87,SE,146,1.0,2.0,89,0.00,,---,0.00,VWS V14.01,2013-03-14 12:50:00,
2013-03-14 12:55:00,37.4,34.5,29.87,South,177,5.0,5.0,89,0.00,,---,0.00,VWS V14.01,2013-03-14 12:55:00,
2013-03-14 13:00:00,37.6,34.7,29.86,SSE,159,3.0,5.0,89,0.00,,---,0.00,VWS V14.01,2013-03-14 13:00:00,
2013-03-14 13:05:00,37.8,34.9,29.86,South,179,7.0,7.0,89,0.00,,---,0.00,VWS V14.01,2013-03-14 13:05:00,
2013-03-14 13:10:00,37.9,35.0,29.86,South,191,3.0,4.0,89,0.00,,---,0.00,VWS V14.01,2013-03-14 13:10:00,
2013-03-14 13:15:00,38.0,35.0,29.86,West,267,7.0,7.0,89,0.00,,---,0.00,VWS V14.01,2013-03-14 13:15:00,
2013-03-14 13:20:00,38.1,35.2,29.85,South,186,3.0,4.0,89,0.00,,---,0.00,VWS V14.01,2013-03-14 13:20:00,
2013-03-14 13:25:00,38.4,35.5,29.85,SW,227,6.0,6.0,89,0.00,,---,0.00,VWS V14.01,2013-03-14 13:25:00,
2013-03-14 13:30:00,39.0,35.8,29.84,SW,220,5.0,9.0,88,0.00,,---,0.00,VWS V14.01,2013-03-14 13:30:00,
2013-03-14 13:35:00,39.5,36.0,29.84,SW,232,6.0,7.0,87,0.00,,---,0.00,VWS V14.01,2013-03-14 13:35:00,
2013-03-14 13:40:00,40.0,35.9,29.84,SW,236,10.0,11.0,85,0.00,,---,0.00,VWS V14.01,2013-03-14 13:40:00,
2013-03-14 13:45:00,40.1,35.7,29.84,WSW,249,6.0,8.0,84,0.00,,---,0.00,VWS V14.01,2013-03-14 13:45:00,
2013-03-14 13:50:00,40.2,35.8,29.84,SSW,212,11.0,11.0,84,0.00,,---,0.00,VWS V14.01,2013-03-14 13:50:00,
2013-03-14 13:55:00,40.5,35.8,29.83,WSW,238,7.0,7.0,83,0.00,,---,0.00,VWS V14.01,2013-03-14 13:55:00,
2013-03-14 14:00:00,40.6,35.8,29.83,WSW,243,10.0,10.0,83,0.00,,---,0.00,VWS V14.01,2013-03-14 14:00:00,
2013-03-14 14:05:00,40.7,36.0,29.83,SW,231,9.0,9.0,83,0.00,,---,0.00,VWS V14.01,2013-03-14 14:05:00,
2013-03-14 14:10:00,40.7,36.2,29.83,South,185,6.0,6.0,84,0.00,,---,0.00,VWS V14.01,2013-03-14 14:10:00,
2013-03-14 14:15:00,40.7,36.2,29.82,SSW,209,6.0,6.0,84,0.00,,---,0.00,VWS V14.01,2013-03-14 14:15:00,
2013-03-14 14:20:00,40.7,36.2,29.82,SE,140,9.0,9.0,84,0.00,,---,0.00,VWS V14.01,2013-03-14 14:20:00,
2013-03-14 14:25:00,40.8,36.7,29.82,SSE,159,6.0,6.0,85,0.00,,---,0.00,VWS V14.01,2013-03-14 14:25:00,
2013-03-14 14:30:00,40.8,36.7,29.82,SSE,168,6.0,7.0,85,0.00,,---,0.00,VWS V14.01,2013-03-14 14:30:00,
2013-03-14 14:35:00,40.6,36.5,29.81,SSE,156,9.0,9.0,85,0.00,,---,0.00,VWS V14.01,2013-03-14 14:35:00,
2013-03-14 14:40:00,40.5,36.3,29.81,SSW,204,7.0,7.0,85,0.00,,---,0.00,VWS V14.01,2013-03-14 14:40:00,
2013-03-14 14:45:00,40.8,36.7,29.81,SSW,194,7.0,7.0,85,0.00,,---,0.00,VWS V14.01,2013-03-14 14:45:00,
2013-03-14 14:50:00,41.3,36.8,29.81,SSW,208,8.0,8.0,84,0.00,,---,0.00,VWS V14.01,2013-03-14 14:50:00,
2013-03-14 14:55:00,41.8,37.3,29.80,WSW,240,6.0,6.0,84,0.00,,---,0.00,VWS V14.01,2013-03-14 14:55:00,
2013-03-14 15:00:00,41.7,36.3,29.80,SW,231,8.0,8.0,81,0.00,,---,0.00,VWS V14.01,2013-03-14 15:00:00,
2013-03-14 15:05:00,41.7,36.0,29.80,WSW,255,12.0,12.0,80,0.00,,---,0.00,VWS V14.01,2013-03-14 15:05:00,
2013-03-14 15:10:00,41.5,35.8,29.80,WSW,247,13.0,14.0,80,0.00,,---,0.00,VWS V14.01,2013-03-14 15:10:00,
2013-03-14 15:15:00,41.4,36.0,29.80,West,275,8.0,8.0,81,0.00,,---,0.00,VWS V14.01,2013-03-14 15:15:00,
2013-03-14 15:20:00,41.5,36.1,29.80,SW,234,14.0,15.0,81,0.00,,---,0.00,VWS V14.01,2013-03-14 15:20:00,
2013-03-14 15:25:00,41.5,36.4,29.80,SW,234,9.0,9.0,82,0.00,,---,0.00,VWS V14.01,2013-03-14 15:25:00,
2013-03-14 15:30:00,41.5,35.8,29.80,SW,232,13.0,13.0,80,0.00,,---,0.00,VWS V14.01,2013-03-14 15:30:00,
2013-03-14 15:35:00,41.4,35.7,29.79,SW,224,9.0,9.0,80,0.00,,---,0.00,VWS V14.01,2013-03-14 15:35:00,
2013-03-14 15:40:00,41.4,36.0,29.79,SW,234,10.0,10.0,81,0.00,,---,0.00,VWS V14.01,2013-03-14 15:40:00,
2013-03-14 15:45:00,41.5,36.1,29.79,WSW,247,7.0,9.0,81,0.00,,---,0.00,VWS V14.01,2013-03-14 15:45:00,
2013-03-14 15:50:00,41.5,36.1,29.79,SSW,208,10.0,11.0,81,0.00,,---,0.00,VWS V14.01,2013-03-14 15:50:00,
2013-03-14 15:55:00,41.4,36.0,29.78,SW,232,10.0,10.0,81,0.00,,---,0.00,VWS V14.01,2013-03-14 15:55:00,
2013-03-14 16:00:00,41.4,36.0,29.78,SW,218,6.0,8.0,81,0.00,,---,0.00,VWS V14.01,2013-03-14 16:00:00,
2013-03-14 16:05:00,41.2,36.7,29.78,South,184,8.0,8.0,84,0.00,,---,0.00,VWS V14.01,2013-03-14 16:05:00,
2013-03-14 16:10:00,40.9,36.8,29.78,SSW,196,6.0,8.0,85,0.00,,---,0.00,VWS V14.01,2013-03-14 16:10:00,
2013-03-14 16:15:00,40.7,36.5,29.78,SW,218,7.0,8.0,85,0.00,,---,0.00,VWS V14.01,2013-03-14 16:15:00,
2013-03-14 16:20:00,40.4,36.8,29.78,South,184,6.0,7.0,87,0.00,,---,0.00,VWS V14.01,2013-03-14 16:20:00,
2013-03-14 16:25:00,40.3,36.8,29.78,WSW,250,5.0,5.0,87,0.00,,---,0.00,VWS V14.01,2013-03-14 16:25:00,
2013-03-14 16:30:00,40.2,36.7,29.77,SW,233,5.0,5.0,87,0.00,,---,0.00,VWS V14.01,2013-03-14 16:30:00,
2013-03-14 16:35:00,40.3,36.8,29.77,SW,218,9.0,11.0,87,0.00,,---,0.00,VWS V14.01,2013-03-14 16:35:00,
2013-03-14 16:40:00,40.3,36.8,29.77,SW,235,5.0,7.0,87,0.00,,---,0.00,VWS V14.01,2013-03-14 16:40:00,
2013-03-14 16:45:00,40.4,36.8,29.77,SSW,210,7.0,8.0,87,0.00,,---,0.00,VWS V14.01,2013-03-14 16:45:00,
2013-03-14 16:50:00,40.4,36.5,29.77,SW,218,7.0,8.0,86,0.00,,---,0.00,VWS V14.01,2013-03-14 16:50:00,
2013-03-14 16:55:00,40.3,36.5,29.77,SSW,211,8.0,8.0,86,0.00,,---,0.00,VWS V14.01,2013-03-14 16:55:00,
2013-03-14 17:00:00,40.3,36.5,29.76,SW,230,7.0,8.0,86,0.00,,---,0.00,VWS V14.01,2013-03-14 17:00:00,
2013-03-14 17:05:00,40.3,36.5,29.76,SSW,208,6.0,8.0,86,0.00,,---,0.00,VWS V14.01,2013-03-14 17:05:00,
2013-03-14 17:10:00,40.3,36.5,29.76,SW,218,7.0,7.0,86,0.00,,---,0.00,VWS V14.01,2013-03-14 17:10:00,
2013-03-14 17:15:00,40.2,36.3,29.76,SW,218,5.0,7.0,86,0.00,,---,0.00,VWS V14.01,2013-03-14 17:15:00,
2013-03-14 17:20:00,40.1,36.5,29.76,SW,235,7.0,8.0,87,0.00,,---,0.00,VWS V14.01,2013-03-14 17:20:00,
2013-03-14 17:25:00,40.0,36.5,29.76,SW,228,5.0,6.0,87,0.00,,---,0.00,VWS V14.01,2013-03-14 17:25:00,
2013-03-14 17:30:00,39.9,36.3,29.75,SW,216,7.0,7.0,87,0.00,,---,0.00,VWS V14.01,2013-03-14 17:30:00,
2013-03-14 17:35:00,39.8,36.2,29.75,SW,222,4.0,4.0,87,0.00,,---,0.00,VWS V14.01,2013-03-14 17:35:00,
2013-03-14 17:40:00,39.7,36.4,29.75,WSW,242,1.0,1.0,88,0.00,,---,0.00,VWS V14.01,2013-03-14 17:40:00,
2013-03-14 17:45:00,39.6,36.3,29.75,SW,220,3.0,3.0,88,0.00,,---,0.00,VWS V14.01,2013-03-14 17:45:00,
2013-03-14 17:50:00,39.6,36.3,29.75,WSW,245,1.0,1.0,88,0.00,,---,0.00,VWS V14.01,2013-03-14 17:50:00,
2013-03-14 17:55:00,39.6,36.3,29.75,West,259,1.0,1.0,88,0.00,,---,0.00,VWS V14.01,2013-03-14 17:55:00,
2013-03-14 18:00:00,39.5,36.2,29.75,WSW,244,3.0,4.0,88,0.00,,---,0.00,VWS V14.01,2013-03-14 18:00:00,
2013-03-14 18:05:00,39.5,36.2,29.75,SW,235,3.0,4.0,88,0.00,,---,0.00,VWS V14.01,2013-03-14 18:05:00,
2013-03-14 18:10:00,39.5,36.2,29.75,SW,215,4.0,7.0,88,0.00,,---,0.00,VWS V14.01,2013-03-14 18:10:00,
2013-03-14 18:15:00,39.6,36.3,29.75,WSW,247,6.0,8.0,88,0.00,,---,0.00,VWS V14.01,2013-03-14 18:15:00,
2013-03-14 18:20:00,39.7,36.4,29.74,SW,233,5.0,6.0,88,0.00,,---,0.00,VWS V14.01,2013-03-14 18:20:00,
2013-03-14 18:25:00,39.6,36.3,29.74,SW,228,3.0,4.0,88,0.00,,---,0.00,VWS V14.01,2013-03-14 18:25:00,
2013-03-14 18:30:00,39.5,36.5,29.74,West,263,2.0,4.0,89,0.00,,---,0.00,VWS V14.01,2013-03-14 18:30:00,
2013-03-14 18:35:00,39.4,36.4,29.74,WSW,256,3.0,3.0,89,0.00,,---,0.00,VWS V14.01,2013-03-14 18:35:00,
2013-03-14 18:40:00,39.3,36.3,29.74,WSW,250,3.0,3.0,89,0.00,,---,0.00,VWS V14.01,2013-03-14 18:40:00,
2013-03-14 18:45:00,39.3,36.3,29.73,SW,229,5.0,5.0,89,0.00,,---,0.00,VWS V14.01,2013-03-14 18:45:00,
2013-03-14 18:50:00,39.4,36.4,29.73,SSW,210,7.0,7.0,89,0.00,,---,0.00,VWS V14.01,2013-03-14 18:50:00,
2013-03-14 18:55:00,39.6,36.6,29.73,SW,235,8.0,8.0,89,0.00,,---,0.00,VWS V14.01,2013-03-14 18:55:00,
2013-03-14 19:00:00,39.7,36.7,29.73,SW,235,6.0,7.0,89,0.00,,---,0.00,VWS V14.01,2013-03-14 19:00:00,
2013-03-14 19:05:00,39.7,36.7,29.73,SSW,205,7.0,9.0,89,0.00,,---,0.00,VWS V14.01,2013-03-14 19:05:00,
2013-03-14 19:10:00,39.7,36.7,29.73,WSW,249,3.0,3.0,89,0.00,,---,0.00,VWS V14.01,2013-03-14 19:10:00,
2013-03-14 19:15:00,39.7,36.7,29.73,WSW,239,4.0,4.0,89,0.00,,---,0.00,VWS V14.01,2013-03-14 19:15:00,
2013-03-14 19:20:00,39.6,36.6,29.72,WSW,237,3.0,3.0,89,0.00,,---,0.00,VWS V14.01,2013-03-14 19:20:00,
2013-03-14 19:25:00,39.6,36.6,29.72,SW,223,4.0,5.0,89,0.00,,---,0.00,VWS V14.01,2013-03-14 19:25:00,
2013-03-14 19:30:00,39.5,36.5,29.72,West,267,2.0,2.0,89,0.00,,---,0.00,VWS V14.01,2013-03-14 19:30:00,
2013-03-14 19:35:00,39.3,36.6,29.72,SW,223,1.0,1.0,90,0.00,,---,0.00,VWS V14.01,2013-03-14 19:35:00,
2013-03-14 19:40:00,39.2,36.5,29.71,WSW,258,1.0,1.0,90,0.00,,---,0.00,VWS V14.01,2013-03-14 19:40:00,
2013-03-14 19:45:00,39.1,36.4,29.71,WSW,254,1.0,1.0,90,0.00,,---,0.00,VWS V14.01,2013-03-14 19:45:00,
2013-03-14 19:50:00,39.0,36.3,29.71,SW,233,3.0,3.0,90,0.00,,---,0.00,VWS V14.01,2013-03-14 19:50:00,
2013-03-14 19:55:00,38.9,36.5,29.71,SW,232,5.0,5.0,91,0.00,,---,0.00,VWS V14.01,2013-03-14 19:55:00,
2013-03-14 20:00:00,39.0,36.6,29.71,SSW,211,7.0,7.0,91,0.00,,---,0.00,VWS V14.01,2013-03-14 20:00:00,
2013-03-14 20:05:00,39.1,36.4,29.71,SSW,210,8.0,8.0,90,0.00,,---,0.00,VWS V14.01,2013-03-14 20:05:00,
2013-03-14 20:10:00,39.1,36.7,29.70,SW,222,7.0,7.0,91,0.00,,---,0.00,VWS V14.01,2013-03-14 20:10:00,
2013-03-14 20:15:00,39.2,36.8,29.70,SSW,210,6.0,8.0,91,0.00,,---,0.00,VWS V14.01,2013-03-14 20:15:00,
2013-03-14 20:20:00,39.1,36.7,29.70,SW,232,2.0,2.0,91,0.00,,---,0.00,VWS V14.01,2013-03-14 20:20:00,
2013-03-14 20:25:00,39.0,36.6,29.69,SW,218,4.0,4.0,91,0.00,,---,0.00,VWS V14.01,2013-03-14 20:25:00,
2013-03-14 20:30:00,39.0,36.6,29.69,SW,218,3.0,3.0,91,0.00,,---,0.00,VWS V14.01,2013-03-14 20:30:00,
2013-03-14 20:35:00,38.8,36.4,29.69,WSW,247,1.0,2.0,91,0.00,,---,0.00,VWS V14.01,2013-03-14 20:35:00,
2013-03-14 20:40:00,38.7,36.6,29.68,SW,228,5.0,9.0,92,0.00,,---,0.00,VWS V14.01,2013-03-14 20:40:00,
2013-03-14 20:45:00,38.8,36.4,29.68,WSW,243,6.0,7.0,91,0.00,,---,0.00,VWS V14.01,2013-03-14 20:45:00,
2013-03-14 20:50:00,38.7,36.3,29.68,SW,229,4.0,4.0,91,0.00,,---,0.00,VWS V14.01,2013-03-14 20:50:00,
2013-03-14 20:55:00,38.7,36.3,29.68,SW,233,2.0,3.0,91,0.00,,---,0.00,VWS V14.01,2013-03-14 20:55:00,
2013-03-14 21:00:00,38.6,36.2,29.68,SW,235,3.0,5.0,91,0.00,,---,0.00,VWS V14.01,2013-03-14 21:00:00,
2013-03-14 21:05:00,38.6,36.2,29.67,SSW,208,3.0,4.0,91,0.00,,---,0.00,VWS V14.01,2013-03-14 21:05:00,
2013-03-14 21:10:00,38.5,36.1,29.67,SW,214,5.0,7.0,91,0.00,,---,0.00,VWS V14.01,2013-03-14 21:10:00,
2013-03-14 21:15:00,38.4,36.0,29.67,SW,225,2.0,4.0,91,0.00,,---,0.00,VWS V14.01,2013-03-14 21:15:00,
2013-03-14 21:20:00,38.5,36.1,29.67,SW,223,4.0,8.0,91,0.00,,---,0.00,VWS V14.01,2013-03-14 21:20:00,
2013-03-14 21:25:00,38.4,36.0,29.67,SW,229,2.0,3.0,91,0.00,,---,0.00,VWS V14.01,2013-03-14 21:25:00,
2013-03-14 21:30:00,38.4,36.3,29.66,SW,223,2.0,5.0,92,0.00,,---,0.00,VWS V14.01,2013-03-14 21:30:00,
2013-03-14 21:35:00,38.3,36.2,29.66,SSW,210,3.0,7.0,92,0.00,,---,0.00,VWS V14.01,2013-03-14 21:35:00,
2013-03-14 21:40:00,38.2,36.1,29.66,SW,226,3.0,4.0,92,0.00,,---,0.00,VWS V14.01,2013-03-14 21:40:00,
2013-03-14 21:45:00,38.2,36.1,29.66,SW,218,2.0,3.0,92,0.00,,---,0.00,VWS V14.01,2013-03-14 21:45:00,
2013-03-14 21:50:00,38.1,36.0,29.66,WSW,243,3.0,4.0,92,0.00,,---,0.00,VWS V14.01,2013-03-14 21:50:00,
2013-03-14 21:55:00,38.1,36.0,29.66,WSW,239,4.0,4.0,92,0.00,,---,0.00,VWS V14.01,2013-03-14 21:55:00,
2013-03-14 22:00:00,38.1,36.0,29.65,West,259,3.0,4.0,92,0.00,,---,0.00,VWS V14.01,2013-03-14 22:00:00,
2013-03-14 22:05:00,38.1,36.0,29.65,WSW,257,4.0,5.0,92,0.00,,---,0.00,VWS V14.01,2013-03-14 22:05:00,
2013-03-14 22:10:00,38.2,36.1,29.65,WSW,247,3.0,4.0,92,0.00,,---,0.00,VWS V14.01,2013-03-14 22:10:00,
2013-03-14 22:15:00,38.2,36.1,29.65,WSW,253,4.0,5.0,92,0.00,,---,0.00,VWS V14.01,2013-03-14 22:15:00,
2013-03-14 22:20:00,38.2,36.1,29.64,West,259,4.0,5.0,92,0.00,,---,0.00,VWS V14.01,2013-03-14 22:20:00,
2013-03-14 22:25:00,38.4,36.3,29.64,WSW,246,2.0,5.0,92,0.00,,---,0.00,VWS V14.01,2013-03-14 22:25:00,
2013-03-14 22:30:00,38.5,36.1,29.64,WSW,256,6.0,7.0,91,0.00,,---,0.00,VWS V14.01,2013-03-14 22:30:00,
2013-03-14 22:35:00,38.5,36.1,29.64,WSW,239,5.0,5.0,91,0.00,,---,0.00,VWS V14.01,2013-03-14 22:35:00,
2013-03-14 22:40:00,38.4,36.0,29.64,WSW,239,1.0,1.0,91,0.00,,---,0.00,VWS V14.01,2013-03-14 22:40:00,
2013-03-14 22:45:00,38.3,35.9,29.64,SW,235,1.0,2.0,91,0.00,,---,0.00,VWS V14.01,2013-03-14 22:45:00,
2013-03-14 22:50:00,38.3,36.2,29.64,SW,235,1.0,1.0,92,0.00,,---,0.00,VWS V14.01,2013-03-14 22:50:00,
2013-03-14 22:55:00,38.3,36.2,29.63,SW,235,1.0,1.0,92,0.00,,---,0.00,VWS V14.01,2013-03-14 22:55:00,
2013-03-14 23:00:00,38.2,35.8,29.63,SW,235,0.0,1.0,91,0.00,,---,0.00,VWS V14.01,2013-03-14 23:00:00,
2013-03-14 23:05:00,38.1,36.0,29.63,SW,234,0.0,1.0,92,0.00,,---,0.00,VWS V14.01,2013-03-14 23:05:00,
2013-03-14 23:10:00,37.9,35.8,29.62,SW,235,0.0,1.0,92,0.00,,---,0.00,VWS V14.01,2013-03-14 23:10:00,
2013-03-14 23:15:00,37.8,35.7,29.62,SW,235,0.0,1.0,92,0.00,,---,0.00,VWS V14.01,2013-03-14 23:15:00,
2013-03-14 23:20:00,37.7,35.9,29.62,SSE,159,3.0,3.0,93,0.00,,---,0.00,VWS V14.01,2013-03-14 23:20:00,
2013-03-14 23:25:00,37.7,35.9,29.62,South,171,3.0,3.0,93,0.00,,---,0.00,VWS V14.01,2013-03-14 23:25:00,
2013-03-14 23:30:00,37.8,36.0,29.62,South,190,5.0,5.0,93,0.00,,---,0.00,VWS V14.01,2013-03-14 23:30:00,
2013-03-14 23:35:00,37.9,36.1,29.61,SSW,208,2.0,4.0,93,0.00,,---,0.00,VWS V14.01,2013-03-14 23:35:00,
2013-03-14 23:40:00,37.9,36.1,29.61,SW,223,2.0,3.0,93,0.00,,---,0.00,VWS V14.01,2013-03-14 23:40:00,
2013-03-14 23:45:00,37.9,36.1,29.61,South,190,2.0,3.0,93,0.00,,---,0.00,VWS V14.01,2013-03-14 23:45:00,
2013-03-14 23:50:00,38.1,36.5,29.60,WSW,240,2.0,3.0,94,0.00,,---,0.00,VWS V14.01,2013-03-14 23:50:00,
2013-03-14 23:55:00,38.3,36.5,29.60,SSW,213,2.0,3.0,93,0.00,,---,0.00,VWS V14.01,2013-03-14 23:55:00,